• Join FlightAware (Why Join?)
  • Login
  • US Flag 
02:13PM EDT


 

Airport Tracker/Info


-or-


 

Live Flight TrackerFlight Track Log ✈ EJA727 ✈ 28-Aug-2013 ✈ KLBE - KFRG

Flight Track Log - Related Links

Times and Time Zones

All times are in EDT time to prevent confusion due to time zone crossing. See the EJA727 flight status page for this flight to view local times or setup timezone preferences in your user account.

Time Position Orientation Groundspeed Altitude Reporting Facility
EDT Latitude Longitude Course Direction KTS MPH feet Rate Location/Type
09:38AM 40.2722 -79.4728 31° Northeast 235 270 4,000  Level Cleveland Center
09:39AM 40.3508 -79.4117 31° Northeast 281 323 5,100 540 Climbing Cleveland Center
09:40AM 40.3856 -79.3292 61° Northeast 301 346 5,300 1,380 Climbing Cleveland Center
09:42AM 40.4400 -79.1864 63° Northeast 297 342 8,500 2,700 Climbing Cleveland Center
09:43AM 40.4825 -79.0844 61° Northeast 304 350 12,000 3,420 Climbing Cleveland Center
09:44AM 40.5269 -78.9686 63° Northeast 324 373 15,400 3,180 Climbing Cleveland Center
09:45AM 40.5772 -78.8444 62° Northeast 352 405 18,400 2,700 Climbing Cleveland Center
09:46AM 40.6294 -78.7172 62° Northeast 371 427 20,900 2,280 Climbing Cleveland Center
09:47AM 40.6814 -78.5817 63° Northeast 396 456 23,000 2,040 Climbing Cleveland Center
09:48AM 40.7700 -78.3647 62° Northeast 441 507 26,300 1,920 Climbing New York Center
09:49AM 40.8250 -78.2172 64° Northeast 441 507 28,100 1,320 Climbing New York Center
09:50AM 40.8842 -78.0725 62° Northeast 441 507 29,000 420 Climbing New York Center
09:51AM 40.9481 -77.9144 62° Northeast 460 529 29,000  Level New York Center
09:52AM 41.0200 -77.7569 59° Northeast 481 554 29,000  Level New York Center
09:53AM 41.1011 -77.5808 59° Northeast 488 562 29,000  Level New York Center
09:54AM 41.1683 -77.4247 60° Northeast 498 573 29,000  Level New York Center
09:55AM 41.2281 -77.2844 60° Northeast 492 566 29,000  Level New York Center
09:56AM 41.2992 -77.1256 59° Northeast 487 560 29,000  Level New York Center
09:57AM 41.3681 -76.9661 60° Northeast 487 560 29,000  Level New York Center
09:58AM 41.4367 -76.8092 60° Northeast 487 560 29,000  Level New York Center
09:59AM 41.5053 -76.6464 61° Northeast 487 560 29,000 -300 Level New York Center
10:00AM 41.4933 -76.4625 95° East 472 543 28,400 -900 Descending New York Center
10:01AM 41.4397 -76.2753 111° Southeast 474 545 27,200 -1,200 Descending New York Center
10:02AM 41.3822 -76.0742 111° Southeast 500 575 26,000 -1,200 Descending New York Center
10:03AM 41.3297 -75.8961 111° Southeast 512 589 24,900 -1,140 Descending New York Center
10:04AM 41.2789 -75.7156 110° East 518 596 23,800 -960 Descending New York Center
10:05AM 41.2217 -75.5403 113° Southeast 523 602 23,000 -780 Descending New York Center
10:06AM 41.1639 -75.3625 113° Southeast 523 602 22,300 -900 Descending New York Center
10:07AM 41.1039 -75.1933 115° Southeast 517 595 21,200 -660 Descending New York Center
10:08AM 41.0475 -75.0244 114° Southeast 511 588 21,000 -120 Descending New York Center
10:09AM 41.0008 -74.8703 112° Southeast 500 575 21,000 -300 Level New York Center
10:10AM 40.9775 -74.6958 100° East 490 564 20,400 -960 Descending New York Center
10:11AM 40.9583 -74.5244 98° East 466 536 19,100 -720 Descending New York Center
10:12AM 40.9433 -74.3972 99° East 409 471 19,000 -60 Descending New York Center
10:13AM 40.9333 -74.2833 97° East 391 450 19,000  Level New York TRACON
10:14AM 40.9000 -74.1167 105° East 431 496 19,000 -300 Level New York TRACON
10:15AM 40.8333 -73.9833 123° Southeast 417 480 18,400 -1,320 Descending New York TRACON
10:16AM 40.7833 -73.8833 123° Southeast 382 440 16,600 -2,100 Descending New York TRACON
10:17AM 40.7167 -73.7833 131° Southeast 354 407 14,500 -2,100 Descending New York TRACON
10:18AM 40.6667 -73.6833 123° Southeast 319 367 12,400 -2,820 Descending New York TRACON
10:19AM 40.6167 -73.5833 123° Southeast 289 333 8,600 -3,120 Descending New York TRACON
10:20AM 40.5667 -73.5167 135° Southeast 267 307 5,900 -2,580 Descending New York TRACON
10:21AM 40.5500 -73.4333 105° East 231 266 3,500 -1,980 Descending New York TRACON
10:22AM 40.6167 -73.4167 11° North 207 238 2,000 -1,140 Descending New York TRACON
10:23AM 40.6500 -73.4167 360° North 160 184 1,300 -720 Descending New York TRACON
10:24AM 40.7000 -73.4167 360° North 148 170 600 6,720 Descending New York TRACON
10:26AM 40.7842 -73.4186 359° North 149 171 23,000 10,080 Climbing New York Center
10:28AM 40.7288 -73.4134 49° Northeast  Level Estimated